Wilmington, North Carolina
Current Conditions -  °F | °C
As of 10:53 AM on Friday 21 Nov 2014 (Local Time) from KILM Reporting Station
Clear Clear  
Wind Chill: 52°   Ceiling: Unl
Heat Index: 52°   Visibility: 10mi
Dew Point: 21°   Wind: 13mph
Humidity: 30%   Direction: 10°N
Pressure: 30.4"   Gusts: NA
Location:  34.24°N, 77.94°W
Report Text: KILM 211553Z 01011KT 10SM CLR 11/M06 A3040 RMK AO2 SLP295 T01111061
Loading
Personal Weather Stations






























Interactive Weather Map New forecast layout! Learn more

10-Day Weather Forecast

Advertisements
Track Severe Weather on mobile